Gener8 Spyridon — V7BY9 — position and weather

sailwx.info

Track history (hours):
 
Tides and Currents Weather Stations Pressure Air Temp Water Temp Dewpoint Dewpoint Depression Visibility Wind Speed Wind Dir Waves Ship Positions

Gener8 Spyridon

Last reported at 2016-Apr-08 02:33 UTC. Time now 2016-May-02 23:14 UTC.
Position N 38°22' W 074°37'.
Warning: this ship's position is 24 days out of date.

Length 275 m; draft 9.4 m.

Type: Tanker. MMSI: 538001404.

Date/timePositionNaut miles runAvg speedWind from/ knotsBaromVisibWave heightAir tempDewpointWater temp
2016-Apr-08 02:33N 38°22' W 074°37'1211.8
2016-Apr-08 01:33N 38°30' W 074°47'1110.5
2016-Apr-08 00:33N 38°39' W 074°55'10 9.6
2016-Apr-07 23:33N 38°47' W 075°02'9 9.0
2016-Apr-07 22:33N 38°55' W 075°06'1313.1
2016-Apr-07 21:34N 39°07' W 075°13'1615.6
2016-Apr-07 20:33N 39°20' W 075°25'1514.6
2016-Apr-07 19:34N 39°33' W 075°33'1312.6
2016-Apr-07 18:33N 39°45' W 075°29'5 4.8
2016-Apr-07 17:33N 39°48' W 075°24'0 0.1
2016-Apr-07 16:33N 39°48' W 075°24'0 0.0
2016-Apr-07 15:33N 39°48' W 075°24'0 0.0
2016-Apr-07 14:33N 39°48' W 075°24'0 0.0
2016-Apr-07 13:33N 39°48' W 075°25'0 0.3
2016-Apr-07 12:30N 39°48' W 075°25'0 0.0
2016-Apr-07 11:24N 39°48' W 075°25'0 0.0
2016-Apr-07 10:33N 39°48' W 075°25'0 0.0
2016-Apr-07 09:33N 39°48' W 075°25'0 0.0
2016-Apr-07 08:33N 39°48' W 075°25'0 0.0
2016-Apr-07 07:33N 39°48' W 075°25'0 0.2
2016-Apr-07 06:33N 39°48' W 075°25'0 0.2
2016-Apr-07 05:30N 39°48' W 075°24'0 0.0
2016-Apr-07 04:33N 39°48' W 075°25'3 3.0
2016-Apr-07 03:33N 39°50' W 075°22'4 4.1
2016-Apr-07 02:33N 39°51' W 075°16'0 0.0
2016-Apr-07 01:33N 39°51' W 075°16'0 0.0
2016-Apr-07 00:33N 39°51' W 075°16'0 0.0
2016-Apr-06 23:33N 39°51' W 075°16'0 0.0
2016-Apr-06 22:33N 39°51' W 075°16'0 0.0
2016-Apr-06 21:30N 39°51' W 075°16'0 0.0
2016-Apr-06 20:33N 39°51' W 075°16'0 0.0
2016-Apr-06 19:27N 39°51' W 075°16'0 0.0
2016-Apr-06 18:30N 39°51' W 075°16'0 0.0
2016-Apr-06 17:33N 39°51' W 075°16'0 0.0
2016-Apr-06 16:27N 39°51' W 075°16'0 0.0
2016-Apr-06 15:33N 39°51' W 075°16'0 0.0
2016-Apr-06 14:33N 39°51' W 075°16'0 0.0
2016-Apr-06 13:33N 39°51' W 075°16'0 0.0
2016-Apr-06 12:33N 39°51' W 075°16'0 0.0
2016-Apr-06 11:33N 39°51' W 075°16'0 0.0
2016-Apr-06 10:33N 39°51' W 075°16'0 0.0
2016-Apr-06 09:33N 39°51' W 075°16'0 0.0
2016-Apr-06 08:33N 39°51' W 075°16'0 0.0
2016-Apr-06 07:33N 39°51' W 075°16'0 0.0
2016-Apr-06 06:30N 39°51' W 075°16'0 0.0
2016-Apr-06 05:33N 39°51' W 075°16'0 0.0
2016-Apr-06 04:27N 39°51' W 075°16'0 0.0
2016-Apr-06 03:33N 39°51' W 075°16'0 0.0
2016-Apr-06 02:33N 39°51' W 075°16'0 0.0
2016-Apr-06 01:33N 39°51' W 075°16'0 0.0
2016-Apr-06 00:21N 39°51' W 075°16'0 0.0
2016-Apr-05 23:27N 39°51' W 075°16'0 0.0
2016-Apr-05 22:33N 39°51' W 075°16'0 0.0
2016-Apr-05 21:33N 39°51' W 075°16'0 0.0
2016-Apr-05 20:30N 39°51' W 075°16'0 0.0
2016-Apr-05 19:33N 39°51' W 075°16'0 0.0
2016-Apr-05 18:34N 39°51' W 075°16'2 2.3
2016-Apr-05 17:34N 39°51' W 075°19'9 8.9
2016-Apr-05 16:33N 39°46' W 075°29'1110.8
2016-Apr-05 15:34N 39°36' W 075°34'1111.5
2016-Apr-05 14:33N 39°25' W 075°30'1212.5
2016-Apr-05 13:33N 39°15' W 075°20'1212.4
2016-Apr-05 12:33N 39°05' W 075°11'1211.8
2016-Apr-05 11:33N 38°54' W 075°05'6 5.3
2016-Apr-05 10:31N 38°57' W 075°11'0 0.0
2016-Apr-05 09:31N 38°57' W 075°11'0 0.1
2016-Apr-05 08:31N 38°57' W 075°11'0 0.2
2016-Apr-05 07:31N 38°57' W 075°11'0 0.0
2016-Apr-05 06:28N 38°57' W 075°11'0 0.0
2016-Apr-05 05:31N 38°57' W 075°11'0 0.0
2016-Apr-05 04:31N 38°57' W 075°11'0 0.0
2016-Apr-05 03:31N 38°57' W 075°11'0 0.0
2016-Apr-05 02:31N 38°57' W 075°11'0 0.1
2016-Apr-05 01:31N 38°57' W 075°11'0 0.3
2016-Apr-05 00:31N 38°57' W 075°11'0 0.0
2016-Apr-04 23:31N 38°57' W 075°11'0 0.1
2016-Apr-04 22:31N 38°57' W 075°11'0 0.1
2016-Apr-04 21:31N 38°57' W 075°11'0 0.0
2016-Apr-04 20:28N 38°57' W 075°11'0 0.1
2016-Apr-04 19:31N 38°57' W 075°11'0 0.1
2016-Apr-04 18:31N 38°57' W 075°11'0 0.3
2016-Apr-04 17:31N 38°57' W 075°11'0 0.0
2016-Apr-04 16:28N 38°57' W 075°11'0 0.1
2016-Apr-04 15:28N 38°57' W 075°11'0 0.0
2016-Apr-04 14:31N 38°57' W 075°11'0 0.2
2016-Apr-04 13:31N 38°57' W 075°11'0 0.0
2016-Apr-04 12:31N 38°57' W 075°11'0 0.1
2016-Apr-04 11:31N 38°57' W 075°11'0 0.1
2016-Apr-04 10:31N 38°57' W 075°11'0 0.0
2016-Apr-04 09:28N 38°57' W 075°11'0 0.0
2016-Apr-04 08:31N 38°57' W 075°11'0 0.0
2016-Apr-04 07:31N 38°57' W 075°11'0 0.0
2016-Apr-04 06:31N 38°57' W 075°11'0 0.2
2016-Apr-04 05:31N 38°57' W 075°11'0 0.1
2016-Apr-04 04:31N 38°57' W 075°11'0 0.1
2016-Apr-04 03:31N 38°57' W 075°11'0 0.1
2016-Apr-04 02:31N 38°57' W 075°11'0 0.0
2016-Apr-04 01:31N 38°57' W 075°11'0 0.2
2016-Apr-04 00:31N 38°57' W 075°11'0 0.2
2016-Apr-03 23:31N 38°57' W 075°11'0 0.0
2016-Apr-03 22:31N 38°57' W 075°11'0 0.0
2016-Apr-03 21:31N 38°57' W 075°11'0 0.0
2016-Apr-03 20:31N 38°57' W 075°11'0 0.0
2016-Apr-03 19:25N 38°57' W 075°11'0 0.1
2016-Apr-03 18:28N 38°57' W 075°11'0 0.4
2016-Apr-03 17:31N 38°57' W 075°11'0 0.1
2016-Apr-03 16:31N 38°57' W 075°11'0 0.0
2016-Apr-03 15:31N 38°57' W 075°11'0 0.0
2016-Apr-03 14:31N 38°57' W 075°11'0 0.1
2016-Apr-03 13:28N 38°57' W 075°11'0 0.0
2016-Apr-03 12:31N 38°57' W 075°11'0 0.0
2016-Apr-03 11:31N 38°57' W 075°11'0 0.1
2016-Apr-03 10:31N 38°57' W 075°11'0 0.0
2016-Apr-03 09:31N 38°57' W 075°11'0 0.0
2016-Apr-03 08:31N 38°57' W 075°11'0 0.0
2016-Apr-03 07:31N 38°57' W 075°11'0 0.0
2016-Apr-03 06:31N 38°57' W 075°11'0 0.0
2016-Apr-03 05:31N 38°57' W 075°11'0 0.2
2016-Apr-03 04:31N 38°57' W 075°11'0 0.0
2016-Apr-03 03:31N 38°57' W 075°11'0 0.0
2016-Apr-03 02:31N 38°57' W 075°11'0 0.0
2016-Apr-03 01:31N 38°57' W 075°11'0 0.3
2016-Apr-03 00:31N 38°57' W 075°11'0 0.2
2016-Apr-02 23:31N 38°57' W 075°11'0 0.0
2016-Apr-02 22:31N 38°57' W 075°11'0 0.0
2016-Apr-02 21:31N 38°57' W 075°11'0 0.0
2016-Apr-02 20:25N 38°57' W 075°11'0 0.0
2016-Apr-02 19:19N 38°57' W 075°11'0 0.1
2016-Apr-02 18:31N 38°57' W 075°11'0 0.3
2016-Apr-02 17:16N 38°57' W 075°11'0 0.0
2016-Apr-02 15:13N 38°57' W 075°11'0 0.0
2016-Apr-02 14:31N 38°57' W 075°11'0 0.0
2016-Apr-02 13:31N 38°57' W 075°11'0 0.1
2016-Apr-02 12:31N 38°57' W 075°11'0 0.1
2016-Apr-02 11:31N 38°57' W 075°11'0 0.2
2016-Apr-02 10:31N 38°57' W 075°11'0 0.1
2016-Apr-02 09:31N 38°57' W 075°11'0 0.0
2016-Apr-02 08:31N 38°57' W 075°11'0 0.0
2016-Apr-02 07:31N 38°57' W 075°11'0 0.1
2016-Apr-02 06:31N 38°57' W 075°11'0 0.0
2016-Apr-02 05:31N 38°57' W 075°11'0 0.2
2016-Apr-02 04:31N 38°57' W 075°11'0 0.1
2016-Apr-02 03:28N 38°57' W 075°11'0 0.0
2016-Apr-02 02:31N 38°57' W 075°11'0 0.0
2016-Apr-02 01:28N 38°57' W 075°11'0 0.0
2016-Apr-02 00:31N 38°57' W 075°11'0 0.1
2016-Apr-01 23:31N 38°57' W 075°11'0 0.2
2016-Apr-01 22:31N 38°57' W 075°11'0 0.1
2016-Apr-01 21:31N 38°57' W 075°11'0 0.0
2016-Apr-01 20:31N 38°57' W 075°11'0 0.0
2016-Apr-01 19:31N 38°57' W 075°11'0 0.0
2016-Apr-01 18:31N 38°57' W 075°11'0 0.0
2016-Apr-01 17:31N 38°57' W 075°11'0 0.2
2016-Apr-01 16:31N 38°57' W 075°11'0 0.2
2016-Apr-01 15:31N 38°57' W 075°11'0 0.0
2016-Apr-01 14:31N 38°57' W 075°11'0 0.0
2016-Apr-01 13:31N 38°57' W 075°11'0 0.0
2016-Apr-01 12:28N 38°57' W 075°11'0 0.0
2016-Apr-01 11:31N 38°57' W 075°11'0 0.3
2016-Apr-01 10:28N 38°57' W 075°11'0 0.1
2016-Apr-01 09:28N 38°57' W 075°11'0 0.0
2016-Apr-01 08:31N 38°57' W 075°11'0 0.0
2016-Apr-01 07:31N 38°57' W 075°11'0 0.0
2016-Apr-01 06:31N 38°57' W 075°11'0 0.0
2016-Apr-01 05:31N 38°57' W 075°11'0 0.1
2016-Apr-01 04:31N 38°57' W 075°11'0 0.1
2016-Apr-01 03:28N 38°57' W 075°11'0 0.2
2016-Apr-01 02:28N 38°57' W 075°11'0 0.0
2016-Apr-01 01:31N 38°57' W 075°11'0 0.0
2016-Apr-01 00:31N 38°57' W 075°11'0 0.0
2016-Mar-31 23:31N 38°57' W 075°11'0 0.0
2016-Mar-31 22:31N 38°57' W 075°11'0 0.1
2016-Mar-31 15:31N 38°57' W 075°11'0 0.2
2016-Mar-31 13:31N 38°57' W 075°11'0 0.1
2016-Mar-31 12:31N 38°57' W 075°11'0 0.0
2016-Mar-31 11:31N 38°57' W 075°11'0 0.0
2016-Mar-31 10:31N 38°57' W 075°11'0 0.3
2016-Mar-31 09:31N 38°57' W 075°11'0 0.0
2016-Mar-31 08:31N 38°57' W 075°11'0 0.0
2016-Mar-31 07:31N 38°57' W 075°11'0 0.0
2016-Mar-31 06:31N 38°57' W 075°11'0 0.0
2016-Mar-31 05:31N 38°57' W 075°11'0 0.0
2016-Mar-31 04:28N 38°57' W 075°11'0 0.0
2016-Mar-31 03:31N 38°57' W 075°11'0 0.2
2016-Mar-31 02:31N 38°57' W 075°11'0 0.2
2016-Mar-31 01:31N 38°57' W 075°11'0 0.0
2016-Mar-31 00:31N 38°57' W 075°11'0 0.1
2016-Mar-30 23:31N 38°57' W 075°11'0 0.1
2016-Mar-30 22:31N 38°57' W 075°11'0 0.2
2016-Mar-30 21:31N 38°57' W 075°11'0 0.2
2016-Mar-30 20:31N 38°57' W 075°11'0 0.1
2016-Mar-30 19:31N 38°57' W 075°11'0 0.0
2016-Mar-30 18:31N 38°57' W 075°11'0 0.0
2016-Mar-30 17:31N 38°57' W 075°11'0 0.0
2016-Mar-30 16:31N 38°57' W 075°11'0 0.1
2016-Mar-30 15:28N 38°57' W 075°11'0 0.0
2016-Mar-30 14:28N 38°57' W 075°11'0 0.3
2016-Mar-30 13:31N 38°57' W 075°11'0 0.1
2016-Mar-30 12:31N 38°57' W 075°11'0 0.0
2016-Mar-30 11:31N 38°57' W 075°11'0 0.0
2016-Mar-30 10:31N 38°57' W 075°11'0 0.0
2016-Mar-30 09:31N 38°57' W 075°11'0 0.1
2016-Mar-30 08:31N 38°57' W 075°11'0 0.3
2016-Mar-30 07:25N 38°57' W 075°11'0 0.1
2016-Mar-30 06:31N 38°57' W 075°11'0 0.1
2016-Mar-30 05:31N 38°57' W 075°11'0 0.0
2016-Mar-30 04:31N 38°57' W 075°11'0 0.1
2016-Mar-30 03:31N 38°57' W 075°11'0 0.0
2016-Mar-30 02:31N 38°57' W 075°11'0 0.3
2016-Mar-30 01:31N 38°57' W 075°11'0 0.0
2016-Mar-30 00:31N 38°57' W 075°11'0 0.0
2016-Mar-29 23:31N 38°57' W 075°11'0 0.0
2016-Mar-29 22:31N 38°57' W 075°11'0 0.0
2016-Mar-29 21:28N 38°57' W 075°11'0 0.0
2016-Mar-29 20:31N 38°57' W 075°11'0 0.2
2016-Mar-29 19:31N 38°57' W 075°11'0 0.2
2016-Mar-29 18:31N 38°57' W 075°11'0 0.0
2016-Mar-29 17:31N 38°57' W 075°11'0 0.0
2016-Mar-29 16:31N 38°57' W 075°11'0 0.0
2016-Mar-29 15:31N 38°57' W 075°11'0 0.2
2016-Mar-29 14:31N 38°57' W 075°11'0 0.3
2016-Mar-29 13:28N 38°57' W 075°11'0 0.0
2016-Mar-29 12:31N 38°57' W 075°11'0 0.0
2016-Mar-29 11:31N 38°57' W 075°11'0 0.0
2016-Mar-29 10:31N 38°57' W 075°11'0 0.0
2016-Mar-29 09:31N 38°57' W 075°11'0 0.0
2016-Mar-29 08:25N 38°57' W 075°11'0 0.0
2016-Mar-29 07:28N 38°57' W 075°11'0 0.3
2016-Mar-29 06:31N 38°57' W 075°11'0 0.1
2016-Mar-29 05:31N 38°57' W 075°11'0 0.0
2016-Mar-29 04:31N 38°57' W 075°11'0 0.0
2016-Mar-29 03:31N 38°57' W 075°11'  
Track history (hours):
 
Tides and Currents Weather Stations Pressure Air Temp Water Temp Dewpoint Dewpoint Depression Visibility Wind Speed Wind Dir Waves Ship Positions

Gener8 Spyridon

Last reported at 2016-Apr-08 02:33 UTC. Time now 2016-May-02 23:14 UTC.
Position N 38°22' W 074°37'.
Warning: this ship's position is 24 days out of date.

Length 275 m; draft 9.4 m.

Type: Tanker. MMSI: 538001404.

Date/timePositionNaut miles runAvg speedWind from/ knotsBaromVisibWave heightAir tempDewpointWater temp
2016-Apr-08 02:33N 38°22' W 074°37'1211.8
2016-Apr-08 01:33N 38°30' W 074°47'1110.5
2016-Apr-08 00:33N 38°39' W 074°55'10 9.6
2016-Apr-07 23:33N 38°47' W 075°02'9 9.0
2016-Apr-07 22:33N 38°55' W 075°06'1313.1
2016-Apr-07 21:34N 39°07' W 075°13'1615.6
2016-Apr-07 20:33N 39°20' W 075°25'1514.6
2016-Apr-07 19:34N 39°33' W 075°33'1312.6
2016-Apr-07 18:33N 39°45' W 075°29'5 4.8
2016-Apr-07 17:33N 39°48' W 075°24'0 0.1
2016-Apr-07 16:33N 39°48' W 075°24'0 0.0
2016-Apr-07 15:33N 39°48' W 075°24'0 0.0
2016-Apr-07 14:33N 39°48' W 075°24'0 0.0
2016-Apr-07 13:33N 39°48' W 075°25'0 0.3
2016-Apr-07 12:30N 39°48' W 075°25'0 0.0
2016-Apr-07 11:24N 39°48' W 075°25'0 0.0
2016-Apr-07 10:33N 39°48' W 075°25'0 0.0
2016-Apr-07 09:33N 39°48' W 075°25'0 0.0
2016-Apr-07 08:33N 39°48' W 075°25'0 0.0
2016-Apr-07 07:33N 39°48' W 075°25'0 0.2
2016-Apr-07 06:33N 39°48' W 075°25'0 0.2
2016-Apr-07 05:30N 39°48' W 075°24'0 0.0
2016-Apr-07 04:33N 39°48' W 075°25'3 3.0
2016-Apr-07 03:33N 39°50' W 075°22'4 4.1
2016-Apr-07 02:33N 39°51' W 075°16'0 0.0
2016-Apr-07 01:33N 39°51' W 075°16'0 0.0
2016-Apr-07 00:33N 39°51' W 075°16'0 0.0
2016-Apr-06 23:33N 39°51' W 075°16'0 0.0
2016-Apr-06 22:33N 39°51' W 075°16'0 0.0
2016-Apr-06 21:30N 39°51' W 075°16'0 0.0
2016-Apr-06 20:33N 39°51' W 075°16'0 0.0
2016-Apr-06 19:27N 39°51' W 075°16'0 0.0
2016-Apr-06 18:30N 39°51' W 075°16'0 0.0
2016-Apr-06 17:33N 39°51' W 075°16'0 0.0
2016-Apr-06 16:27N 39°51' W 075°16'0 0.0
2016-Apr-06 15:33N 39°51' W 075°16'0 0.0
2016-Apr-06 14:33N 39°51' W 075°16'0 0.0
2016-Apr-06 13:33N 39°51' W 075°16'0 0.0
2016-Apr-06 12:33N 39°51' W 075°16'0 0.0
2016-Apr-06 11:33N 39°51' W 075°16'0 0.0
2016-Apr-06 10:33N 39°51' W 075°16'0 0.0
2016-Apr-06 09:33N 39°51' W 075°16'0 0.0
2016-Apr-06 08:33N 39°51' W 075°16'0 0.0
2016-Apr-06 07:33N 39°51' W 075°16'0 0.0
2016-Apr-06 06:30N 39°51' W 075°16'0 0.0
2016-Apr-06 05:33N 39°51' W 075°16'0 0.0
2016-Apr-06 04:27N 39°51' W 075°16'0 0.0
2016-Apr-06 03:33N 39°51' W 075°16'0 0.0
2016-Apr-06 02:33N 39°51' W 075°16'0 0.0
2016-Apr-06 01:33N 39°51' W 075°16'0 0.0
2016-Apr-06 00:21N 39°51' W 075°16'0 0.0
2016-Apr-05 23:27N 39°51' W 075°16'0 0.0
2016-Apr-05 22:33N 39°51' W 075°16'0 0.0
2016-Apr-05 21:33N 39°51' W 075°16'0 0.0
2016-Apr-05 20:30N 39°51' W 075°16'0 0.0
2016-Apr-05 19:33N 39°51' W 075°16'0 0.0
2016-Apr-05 18:34N 39°51' W 075°16'2 2.3
2016-Apr-05 17:34N 39°51' W 075°19'9 8.9
2016-Apr-05 16:33N 39°46' W 075°29'1110.8
2016-Apr-05 15:34N 39°36' W 075°34'1111.5
2016-Apr-05 14:33N 39°25' W 075°30'1212.5
2016-Apr-05 13:33N 39°15' W 075°20'1212.4
2016-Apr-05 12:33N 39°05' W 075°11'1211.8
2016-Apr-05 11:33N 38°54' W 075°05'6 5.3
2016-Apr-05 10:31N 38°57' W 075°11'0 0.0
2016-Apr-05 09:31N 38°57' W 075°11'0 0.1
2016-Apr-05 08:31N 38°57' W 075°11'0 0.2
2016-Apr-05 07:31N 38°57' W 075°11'0 0.0
2016-Apr-05 06:28N 38°57' W 075°11'0 0.0
2016-Apr-05 05:31N 38°57' W 075°11'0 0.0
2016-Apr-05 04:31N 38°57' W 075°11'0 0.0
2016-Apr-05 03:31N 38°57' W 075°11'0 0.0
2016-Apr-05 02:31N 38°57' W 075°11'0 0.1
2016-Apr-05 01:31N 38°57' W 075°11'0 0.3
2016-Apr-05 00:31N 38°57' W 075°11'0 0.0
2016-Apr-04 23:31N 38°57' W 075°11'0 0.1
2016-Apr-04 22:31N 38°57' W 075°11'0 0.1
2016-Apr-04 21:31N 38°57' W 075°11'0 0.0
2016-Apr-04 20:28N 38°57' W 075°11'0 0.1
2016-Apr-04 19:31N 38°57' W 075°11'0 0.1
2016-Apr-04 18:31N 38°57' W 075°11'0 0.3
2016-Apr-04 17:31N 38°57' W 075°11'0 0.0
2016-Apr-04 16:28N 38°57' W 075°11'0 0.1
2016-Apr-04 15:28N 38°57' W 075°11'0 0.0
2016-Apr-04 14:31N 38°57' W 075°11'0 0.2
2016-Apr-04 13:31N 38°57' W 075°11'0 0.0
2016-Apr-04 12:31N 38°57' W 075°11'0 0.1
2016-Apr-04 11:31N 38°57' W 075°11'0 0.1
2016-Apr-04 10:31N 38°57' W 075°11'0 0.0
2016-Apr-04 09:28N 38°57' W 075°11'0 0.0
2016-Apr-04 08:31N 38°57' W 075°11'0 0.0
2016-Apr-04 07:31N 38°57' W 075°11'0 0.0
2016-Apr-04 06:31N 38°57' W 075°11'0 0.2
2016-Apr-04 05:31N 38°57' W 075°11'0 0.1
2016-Apr-04 04:31N 38°57' W 075°11'0 0.1
2016-Apr-04 03:31N 38°57' W 075°11'0 0.1
2016-Apr-04 02:31N 38°57' W 075°11'0 0.0
2016-Apr-04 01:31N 38°57' W 075°11'0 0.2
2016-Apr-04 00:31N 38°57' W 075°11'0 0.2
2016-Apr-03 23:31N 38°57' W 075°11'0 0.0
2016-Apr-03 22:31N 38°57' W 075°11'0 0.0
2016-Apr-03 21:31N 38°57' W 075°11'0 0.0
2016-Apr-03 20:31N 38°57' W 075°11'0 0.0
2016-Apr-03 19:25N 38°57' W 075°11'0 0.1
2016-Apr-03 18:28N 38°57' W 075°11'0 0.4
2016-Apr-03 17:31N 38°57' W 075°11'0 0.1
2016-Apr-03 16:31N 38°57' W 075°11'0 0.0
2016-Apr-03 15:31N 38°57' W 075°11'0 0.0
2016-Apr-03 14:31N 38°57' W 075°11'0 0.1
2016-Apr-03 13:28N 38°57' W 075°11'0 0.0
2016-Apr-03 12:31N 38°57' W 075°11'0 0.0
2016-Apr-03 11:31N 38°57' W 075°11'0 0.1
2016-Apr-03 10:31N 38°57' W 075°11'0 0.0
2016-Apr-03 09:31N 38°57' W 075°11'0 0.0
2016-Apr-03 08:31N 38°57' W 075°11'0 0.0
2016-Apr-03 07:31N 38°57' W 075°11'0 0.0
2016-Apr-03 06:31N 38°57' W 075°11'0 0.0
2016-Apr-03 05:31N 38°57' W 075°11'0 0.2
2016-Apr-03 04:31N 38°57' W 075°11'0 0.0
2016-Apr-03 03:31N 38°57' W 075°11'0 0.0
2016-Apr-03 02:31N 38°57' W 075°11'0 0.0
2016-Apr-03 01:31N 38°57' W 075°11'0 0.3
2016-Apr-03 00:31N 38°57' W 075°11'0 0.2
2016-Apr-02 23:31N 38°57' W 075°11'0 0.0
2016-Apr-02 22:31N 38°57' W 075°11'0 0.0
2016-Apr-02 21:31N 38°57' W 075°11'0 0.0
2016-Apr-02 20:25N 38°57' W 075°11'0 0.0
2016-Apr-02 19:19N 38°57' W 075°11'0 0.1
2016-Apr-02 18:31N 38°57' W 075°11'0 0.3
2016-Apr-02 17:16N 38°57' W 075°11'0 0.0
2016-Apr-02 15:13N 38°57' W 075°11'0 0.0
2016-Apr-02 14:31N 38°57' W 075°11'0 0.0
2016-Apr-02 13:31N 38°57' W 075°11'0 0.1
2016-Apr-02 12:31N 38°57' W 075°11'0 0.1
2016-Apr-02 11:31N 38°57' W 075°11'0 0.2
2016-Apr-02 10:31N 38°57' W 075°11'0 0.1
2016-Apr-02 09:31N 38°57' W 075°11'0 0.0
2016-Apr-02 08:31N 38°57' W 075°11'0 0.0
2016-Apr-02 07:31N 38°57' W 075°11'0 0.1
2016-Apr-02 06:31N 38°57' W 075°11'0 0.0
2016-Apr-02 05:31N 38°57' W 075°11'0 0.2
2016-Apr-02 04:31N 38°57' W 075°11'0 0.1
2016-Apr-02 03:28N 38°57' W 075°11'0 0.0
2016-Apr-02 02:31N 38°57' W 075°11'0 0.0
2016-Apr-02 01:28N 38°57' W 075°11'0 0.0
2016-Apr-02 00:31N 38°57' W 075°11'0 0.1
2016-Apr-01 23:31N 38°57' W 075°11'0 0.2
2016-Apr-01 22:31N 38°57' W 075°11'0 0.1
2016-Apr-01 21:31N 38°57' W 075°11'0 0.0
2016-Apr-01 20:31N 38°57' W 075°11'0 0.0
2016-Apr-01 19:31N 38°57' W 075°11'0 0.0
2016-Apr-01 18:31N 38°57' W 075°11'0 0.0
2016-Apr-01 17:31N 38°57' W 075°11'0 0.2
2016-Apr-01 16:31N 38°57' W 075°11'0 0.2
2016-Apr-01 15:31N 38°57' W 075°11'0 0.0
2016-Apr-01 14:31N 38°57' W 075°11'0 0.0
2016-Apr-01 13:31N 38°57' W 075°11'0 0.0
2016-Apr-01 12:28N 38°57' W 075°11'0 0.0
2016-Apr-01 11:31N 38°57' W 075°11'0 0.3
2016-Apr-01 10:28N 38°57' W 075°11'0 0.1
2016-Apr-01 09:28N 38°57' W 075°11'0 0.0
2016-Apr-01 08:31N 38°57' W 075°11'0 0.0
2016-Apr-01 07:31N 38°57' W 075°11'0 0.0
2016-Apr-01 06:31N 38°57' W 075°11'0 0.0
2016-Apr-01 05:31N 38°57' W 075°11'0 0.1
2016-Apr-01 04:31N 38°57' W 075°11'0 0.1
2016-Apr-01 03:28N 38°57' W 075°11'0 0.2
2016-Apr-01 02:28N 38°57' W 075°11'0 0.0
2016-Apr-01 01:31N 38°57' W 075°11'0 0.0
2016-Apr-01 00:31N 38°57' W 075°11'0 0.0
2016-Mar-31 23:31N 38°57' W 075°11'0 0.0
2016-Mar-31 22:31N 38°57' W 075°11'0 0.1
2016-Mar-31 15:31N 38°57' W 075°11'0 0.2
2016-Mar-31 13:31N 38°57' W 075°11'0 0.1
2016-Mar-31 12:31N 38°57' W 075°11'0 0.0
2016-Mar-31 11:31N 38°57' W 075°11'0 0.0
2016-Mar-31 10:31N 38°57' W 075°11'0 0.3
2016-Mar-31 09:31N 38°57' W 075°11'0 0.0
2016-Mar-31 08:31N 38°57' W 075°11'0 0.0
2016-Mar-31 07:31N 38°57' W 075°11'0 0.0
2016-Mar-31 06:31N 38°57' W 075°11'0 0.0
2016-Mar-31 05:31N 38°57' W 075°11'0 0.0
2016-Mar-31 04:28N 38°57' W 075°11'0 0.0
2016-Mar-31 03:31N 38°57' W 075°11'0 0.2
2016-Mar-31 02:31N 38°57' W 075°11'0 0.2
2016-Mar-31 01:31N 38°57' W 075°11'0 0.0
2016-Mar-31 00:31N 38°57' W 075°11'0 0.1
2016-Mar-30 23:31N 38°57' W 075°11'0 0.1
2016-Mar-30 22:31N 38°57' W 075°11'0 0.2
2016-Mar-30 21:31N 38°57' W 075°11'0 0.2
2016-Mar-30 20:31N 38°57' W 075°11'0 0.1
2016-Mar-30 19:31N 38°57' W 075°11'0 0.0
2016-Mar-30 18:31N 38°57' W 075°11'0 0.0
2016-Mar-30 17:31N 38°57' W 075°11'0 0.0
2016-Mar-30 16:31N 38°57' W 075°11'0 0.1
2016-Mar-30 15:28N 38°57' W 075°11'0 0.0
2016-Mar-30 14:28N 38°57' W 075°11'0 0.3
2016-Mar-30 13:31N 38°57' W 075°11'0 0.1
2016-Mar-30 12:31N 38°57' W 075°11'0 0.0
2016-Mar-30 11:31N 38°57' W 075°11'0 0.0
2016-Mar-30 10:31N 38°57' W 075°11'0 0.0
2016-Mar-30 09:31N 38°57' W 075°11'0 0.1
2016-Mar-30 08:31N 38°57' W 075°11'0 0.3
2016-Mar-30 07:25N 38°57' W 075°11'0 0.1
2016-Mar-30 06:31N 38°57' W 075°11'0 0.1
2016-Mar-30 05:31N 38°57' W 075°11'0 0.0
2016-Mar-30 04:31N 38°57' W 075°11'0 0.1
2016-Mar-30 03:31N 38°57' W 075°11'0 0.0
2016-Mar-30 02:31N 38°57' W 075°11'0 0.3
2016-Mar-30 01:31N 38°57' W 075°11'0 0.0
2016-Mar-30 00:31N 38°57' W 075°11'0 0.0
2016-Mar-29 23:31N 38°57' W 075°11'0 0.0
2016-Mar-29 22:31N 38°57' W 075°11'0 0.0
2016-Mar-29 21:28N 38°57' W 075°11'0 0.0
2016-Mar-29 20:31N 38°57' W 075°11'0 0.2
2016-Mar-29 19:31N 38°57' W 075°11'0 0.2
2016-Mar-29 18:31N 38°57' W 075°11'0 0.0
2016-Mar-29 17:31N 38°57' W 075°11'0 0.0
2016-Mar-29 16:31N 38°57' W 075°11'0 0.0
2016-Mar-29 15:31N 38°57' W 075°11'0 0.2
2016-Mar-29 14:31N 38°57' W 075°11'0 0.3
2016-Mar-29 13:28N 38°57' W 075°11'0 0.0
2016-Mar-29 12:31N 38°57' W 075°11'0 0.0
2016-Mar-29 11:31N 38°57' W 075°11'0 0.0
2016-Mar-29 10:31N 38°57' W 075°11'0 0.0
2016-Mar-29 09:31N 38°57' W 075°11'0 0.0
2016-Mar-29 08:25N 38°57' W 075°11'0 0.0
2016-Mar-29 07:28N 38°57' W 075°11'0 0.3
2016-Mar-29 06:31N 38°57' W 075°11'0 0.1
2016-Mar-29 05:31N 38°57' W 075°11'0 0.0
2016-Mar-29 04:31N 38°57' W 075°11'0 0.0
2016-Mar-29 03:31N 38°57' W 075°11'  

Dump ship's entire track history